Etusivu
METAR-TAF:

METAR-TAF

Lentoasemat :

Marshfield Municipal Airport

Marshfield, Wisconsin, Yhdysvallat

Leveyspiiri: 44-38-17N, Pituuspiiri: 090-11-15W, korkeus merenpinnasta: 389 m

Tämänhetkinen sää

Tämä raportti tehtiin 28 minuuttia sitten, kello 11.54 UTC
Tuuli 5 kn lännestä
Lämpötila 12°C
Kosteus 94%
Ilmanpaine 1004 hPa
Näkyvyys: 16.1 km
Pilvistä 400 ft:n korkeudessa

METAR: KMFI 271154Z AUTO 28005KT 10SM OVC004 12/11 A2965 RMK AO2 SLP041 60000 T01170111 10194 20111 51018

Aika: 07:22 (12:22 UTC)


TAF: puuttuu

Säähavainnot ja -ennusteet yli 4000 lentoasemalta (METAR- ja TAF-raportit).

Käytössä olevat sääasemat on merkitty karttaan keltaisilla ja punaisilla pisteillä.

Aseta hiiri pisteen päälle nähdäksesi sääaseman nimen.

Klikkaa sitten nähdäksesi säähavainnot ja -ennusteet.

Kartan vaihtaminen: klikkaa mustalla rastilla varustettuja vihreitä pisteitä, niin voit zoomata sisään; viivalla varustettua vihreää pistettä, niin voit zoomata ulos tai vihreitä nuolia, niin pääset viereisille kartoille.


METAR-TAF: